createdAt,value
2018-11-14T00:00:27.803Z,17.46
2018-11-14T00:01:29.607Z,17.45
2018-11-14T00:02:31.849Z,17.48
2018-11-14T00:03:33.623Z,17.46
2018-11-14T00:04:35.385Z,17.47
2018-11-14T00:05:37.239Z,17.49
2018-11-14T00:06:39.048Z,17.46
2018-11-14T00:07:41.696Z,17.47
2018-11-14T00:08:43.481Z,17.47
2018-11-14T00:09:45.654Z,17.46
2018-11-14T00:10:47.387Z,17.45
2018-11-14T00:11:49.412Z,17.46
2018-11-14T00:12:51.671Z,17.48
2018-11-14T00:13:53.420Z,17.47
2018-11-14T00:14:55.186Z,17.46
2018-11-14T00:15:56.959Z,17.47
2018-11-14T00:16:58.835Z,17.47
2018-11-14T00:18:00.758Z,17.48
2018-11-14T00:19:02.515Z,17.47
2018-11-14T00:20:04.284Z,17.47
2018-11-14T00:21:06.231Z,17.46
2018-11-14T00:22:08.011Z,17.47
2018-11-14T00:23:09.775Z,17.48
2018-11-14T00:24:12.487Z,17.47
2018-11-14T00:25:14.280Z,17.46
2018-11-14T00:26:16.044Z,17.48
2018-11-14T00:27:17.843Z,17.47
2018-11-14T00:28:19.750Z,17.48
2018-11-14T00:29:22.487Z,17.48
2018-11-14T00:30:25.440Z,17.49
2018-11-14T00:31:27.215Z,17.48
2018-11-14T00:32:29.021Z,17.48
2018-11-14T00:33:31.016Z,17.51
2018-11-14T00:34:32.928Z,17.49
2018-11-14T00:35:34.748Z,17.48
2018-11-14T00:36:36.483Z,17.48
2018-11-14T00:37:38.729Z,17.49
2018-11-14T00:38:40.840Z,17.47
2018-11-14T00:39:42.611Z,17.46
2018-11-14T00:40:44.375Z,17.49
2018-11-14T00:41:46.149Z,17.52
2018-11-14T00:42:48.493Z,17.50
2018-11-14T00:43:50.271Z,17.48
2018-11-14T00:44:52.035Z,17.49
2018-11-14T00:45:53.799Z,17.47
2018-11-14T00:46:55.633Z,17.47
2018-11-14T00:47:57.404Z,17.47
2018-11-14T00:48:59.188Z,17.47
2018-11-14T00:50:00.959Z,17.47
2018-11-14T00:51:02.728Z,17.48
2018-11-14T00:52:04.496Z,17.46
2018-11-14T00:53:06.318Z,17.47
2018-11-14T00:54:08.095Z,17.47
2018-11-14T00:55:11.165Z,17.47
2018-11-14T00:56:12.942Z,17.49
2018-11-14T00:57:14.720Z,17.48
2018-11-14T00:58:16.512Z,17.47
2018-11-14T00:59:18.285Z,17.46
2018-11-14T01:00:22.263Z,17.48
2018-11-14T01:01:24.333Z,17.52
2018-11-14T01:02:26.096Z,17.49
2018-11-14T01:03:27.940Z,17.48
2018-11-14T01:04:29.712Z,17.47
2018-11-14T01:05:31.485Z,17.47
2018-11-14T01:06:33.253Z,17.48
2018-11-14T01:07:35.015Z,17.47
2018-11-14T01:08:37.146Z,17.47
2018-11-14T01:09:38.931Z,17.45
2018-11-14T01:10:41.480Z,17.45
2018-11-14T01:11:43.321Z,17.44
2018-11-14T01:12:45.723Z,17.44
2018-11-14T01:13:47.520Z,17.45
2018-11-14T01:14:49.446Z,17.44
2018-11-14T01:15:51.216Z,17.45
2018-11-14T01:16:52.988Z,17.45
2018-11-14T01:17:54.770Z,17.44
2018-11-14T01:18:56.546Z,17.44
2018-11-14T01:19:58.349Z,17.46
2018-11-14T01:21:00.120Z,17.46
2018-11-14T01:22:01.895Z,17.45
2018-11-14T01:23:03.712Z,17.46
2018-11-14T01:24:05.490Z,17.45
2018-11-14T01:25:07.779Z,17.45
2018-11-14T01:26:09.790Z,17.45
2018-11-14T01:27:11.890Z,17.43
2018-11-14T01:28:13.529Z,17.44
2018-11-14T01:29:15.323Z,17.45
2018-11-14T01:30:19.397Z,17.44
2018-11-14T01:31:21.168Z,17.47
2018-11-14T01:32:22.920Z,17.45
2018-11-14T01:33:25.038Z,17.45
2018-11-14T01:34:26.843Z,17.44
2018-11-14T01:35:28.605Z,17.44
2018-11-14T01:36:30.379Z,17.44
2018-11-14T01:37:32.146Z,17.43
2018-11-14T01:38:34.782Z,17.43
2018-11-14T01:39:36.594Z,17.43
2018-11-14T01:40:38.424Z,17.44
2018-11-14T01:41:41.183Z,17.44
2018-11-14T01:42:43.426Z,17.42
2018-11-14T01:43:45.183Z,17.44
2018-11-14T01:44:47.144Z,17.43
2018-11-14T01:45:48.908Z,17.43
2018-11-14T01:46:50.673Z,17.43
2018-11-14T01:47:52.464Z,17.41
2018-11-14T01:48:54.445Z,17.43
2018-11-14T01:49:56.250Z,17.42
2018-11-14T01:50:58.036Z,17.43
2018-11-14T01:51:59.993Z,17.44
2018-11-14T01:53:01.756Z,17.43
2018-11-14T01:54:03.530Z,17.42
2018-11-14T01:55:05.331Z,17.41
2018-11-14T01:56:07.307Z,17.41
2018-11-14T01:57:09.068Z,17.41
2018-11-14T01:58:11.328Z,17.41
2018-11-14T01:59:13.110Z,17.43
2018-11-14T02:00:16.041Z,17.41
2018-11-14T02:01:18.333Z,17.41
2018-11-14T02:02:20.122Z,17.40
2018-11-14T02:03:21.927Z,17.41
2018-11-14T02:04:23.692Z,17.42
2018-11-14T02:05:25.446Z,17.43
2018-11-14T02:06:27.758Z,17.43
2018-11-14T02:07:29.528Z,17.42
2018-11-14T02:08:31.333Z,17.42
2018-11-14T02:09:33.104Z,17.42
2018-11-14T02:10:34.956Z,17.42
2018-11-14T02:11:36.850Z,17.42
2018-11-14T02:12:39.338Z,17.41
2018-11-14T02:13:41.086Z,17.43
2018-11-14T02:14:44.232Z,17.41
2018-11-14T02:15:46.018Z,17.41
2018-11-14T02:16:47.794Z,17.41
2018-11-14T02:17:49.588Z,17.41
2018-11-14T02:18:51.724Z,17.39
2018-11-14T02:19:53.497Z,17.40
2018-11-14T02:20:55.295Z,17.40
2018-11-14T02:21:57.199Z,17.39
2018-11-14T02:22:58.960Z,17.38
2018-11-14T02:24:00.742Z,17.38
2018-11-14T02:25:02.522Z,17.37
2018-11-14T02:26:04.648Z,17.37
2018-11-14T02:27:06.497Z,17.39
2018-11-14T02:28:08.280Z,17.39
2018-11-14T02:29:10.236Z,17.38
2018-11-14T02:30:12.288Z,17.38
2018-11-14T02:31:14.040Z,17.39
2018-11-14T02:32:15.820Z,17.38
2018-11-14T02:33:17.788Z,17.41
2018-11-14T02:34:19.560Z,17.39
2018-11-14T02:35:21.326Z,17.39
2018-11-14T02:36:23.122Z,17.39
2018-11-14T02:37:24.994Z,17.37
2018-11-14T02:38:27.773Z,17.38
2018-11-14T02:39:29.525Z,17.38
2018-11-14T02:40:31.296Z,17.40
2018-11-14T02:41:35.136Z,17.38
2018-11-14T02:42:36.909Z,17.39
2018-11-14T02:43:38.674Z,17.38
2018-11-14T02:44:41.315Z,17.36
2018-11-14T02:45:43.106Z,17.35
2018-11-14T02:46:45.471Z,17.36
2018-11-14T02:47:47.244Z,17.36
2018-11-14T02:48:49.210Z,17.35
2018-11-14T02:49:50.987Z,17.35
2018-11-14T02:50:52.748Z,17.36
2018-11-14T02:51:55.556Z,17.37
2018-11-14T02:52:57.327Z,17.37
2018-11-14T02:53:59.094Z,17.37
2018-11-14T02:55:00.848Z,17.35
2018-11-14T02:56:02.619Z,17.36
2018-11-14T02:57:04.427Z,17.35
2018-11-14T02:58:06.196Z,17.36
2018-11-14T02:59:07.968Z,17.35
2018-11-14T03:00:09.731Z,17.35
2018-11-14T03:01:11.513Z,17.36
2018-11-14T03:02:13.563Z,17.38
2018-11-14T03:03:15.518Z,17.36
2018-11-14T03:04:17.288Z,17.36
2018-11-14T03:05:19.044Z,17.35
2018-11-14T03:06:20.812Z,17.38
2018-11-14T03:07:23.781Z,17.36
2018-11-14T03:08:25.551Z,17.35
2018-11-14T03:09:27.930Z,17.35
2018-11-14T03:10:29.796Z,17.35
2018-11-14T03:11:31.593Z,17.38
2018-11-14T03:12:33.461Z,17.36
2018-11-14T03:13:35.177Z,17.36
2018-11-14T03:14:36.939Z,17.37
2018-11-14T03:15:39.149Z,17.37
2018-11-14T03:16:40.915Z,17.36
2018-11-14T03:17:42.701Z,17.36
2018-11-14T03:18:44.476Z,17.36
2018-11-14T03:19:46.242Z,17.35
2018-11-14T03:20:48.011Z,17.36
2018-11-14T03:21:49.785Z,17.36
2018-11-14T03:22:52.728Z,17.36
2018-11-14T03:23:54.505Z,17.36
2018-11-14T03:24:56.283Z,17.37
2018-11-14T03:25:58.160Z,17.35
2018-11-14T03:26:59.944Z,17.36
2018-11-14T03:28:01.725Z,17.36
2018-11-14T03:29:03.489Z,17.36
2018-11-14T03:30:05.701Z,17.35
2018-11-14T03:31:07.479Z,17.35
2018-11-14T03:32:09.247Z,17.35
2018-11-14T03:33:11.033Z,17.36
2018-11-14T03:34:12.801Z,17.35
2018-11-14T03:35:15.043Z,17.34
2018-11-14T03:36:23.653Z,17.34
2018-11-14T03:37:25.402Z,17.35
2018-11-14T03:38:27.195Z,17.36
2018-11-14T03:39:28.977Z,17.35
2018-11-14T03:40:30.752Z,17.35
2018-11-14T03:41:32.524Z,17.35
2018-11-14T03:42:35.339Z,17.34
2018-11-14T03:43:37.122Z,17.34
2018-11-14T03:44:38.912Z,17.35
2018-11-14T03:45:40.683Z,17.34
2018-11-14T03:46:42.468Z,17.34
2018-11-14T03:47:44.233Z,17.34
2018-11-14T03:48:46.567Z,17.34
2018-11-14T03:49:48.350Z,17.34
2018-11-14T03:50:50.124Z,17.33
2018-11-14T03:51:52.031Z,17.34
2018-11-14T03:52:53.793Z,17.35
2018-11-14T03:53:55.574Z,17.33
2018-11-14T03:54:58.254Z,17.34
2018-11-14T03:56:00.021Z,17.34
2018-11-14T03:57:01.813Z,17.34
2018-11-14T03:58:03.754Z,17.34
2018-11-14T03:59:05.486Z,17.33
2018-11-14T04:00:07.457Z,17.34
2018-11-14T04:01:09.501Z,17.34
2018-11-14T04:02:11.264Z,17.34
2018-11-14T04:03:13.521Z,17.34
2018-11-14T04:04:15.317Z,17.33
2018-11-14T04:05:17.130Z,17.34
2018-11-14T04:06:18.879Z,17.34
2018-11-14T04:07:21.006Z,17.34
2018-11-14T04:08:22.781Z,17.35
2018-11-14T04:09:24.648Z,17.34
2018-11-14T04:10:26.343Z,17.34
2018-11-14T04:11:28.104Z,17.33
2018-11-14T04:12:29.991Z,17.34
2018-11-14T04:13:31.751Z,17.37
2018-11-14T04:14:33.519Z,17.35
2018-11-14T04:15:35.315Z,17.34
2018-11-14T04:16:37.490Z,17.35
2018-11-14T04:17:39.568Z,17.34
2018-11-14T04:18:42.416Z,17.35
2018-11-14T04:19:44.225Z,17.35
2018-11-14T04:20:46.011Z,17.34
2018-11-14T04:21:47.796Z,17.34
2018-11-14T04:22:49.571Z,17.33
2018-11-14T04:23:51.605Z,17.36
2018-11-14T04:24:54.058Z,17.34
2018-11-14T04:25:55.827Z,17.34
2018-11-14T04:26:58.063Z,17.34
2018-11-14T04:27:59.839Z,17.34
2018-11-14T04:29:01.736Z,17.34
2018-11-14T04:30:03.531Z,17.34
2018-11-14T04:31:05.497Z,17.33
2018-11-14T04:32:07.267Z,17.34
2018-11-14T04:33:09.037Z,17.34
2018-11-14T04:34:10.819Z,17.34
2018-11-14T04:35:13.619Z,17.33
2018-11-14T04:36:15.495Z,17.33
2018-11-14T04:37:17.383Z,17.34
2018-11-14T04:38:19.166Z,17.36
2018-11-14T04:39:20.952Z,17.34
2018-11-14T04:40:23.879Z,17.35
2018-11-14T04:41:26.201Z,17.33
2018-11-14T04:42:28.070Z,17.33
2018-11-14T04:43:29.839Z,17.32
2018-11-14T04:44:31.592Z,17.33
2018-11-14T04:45:33.395Z,17.33
2018-11-14T04:46:35.171Z,17.32
2018-11-14T04:47:37.581Z,17.33
2018-11-14T04:48:39.378Z,17.32
2018-11-14T04:49:41.402Z,17.33
2018-11-14T04:50:43.281Z,17.31
2018-11-14T04:51:45.219Z,17.33
2018-11-14T04:52:47.882Z,17.32
2018-11-14T04:53:49.816Z,17.33
2018-11-14T04:54:51.640Z,17.32
2018-11-14T04:55:53.456Z,17.32
2018-11-14T04:56:55.240Z,17.33
2018-11-14T04:57:57.487Z,17.32
2018-11-14T04:58:59.263Z,17.33
2018-11-14T05:00:01.099Z,17.31
2018-11-14T05:01:05.253Z,17.32
2018-11-14T05:02:07.502Z,17.34
2018-11-14T05:03:09.261Z,17.33
2018-11-14T05:04:12.909Z,17.32
2018-11-14T05:05:15.837Z,17.30
2018-11-14T05:06:17.639Z,17.31
2018-11-14T05:07:19.401Z,17.31
2018-11-14T05:08:21.171Z,17.31
2018-11-14T05:09:22.952Z,17.31
2018-11-14T05:10:26.099Z,17.30
2018-11-14T05:11:28.267Z,17.31
2018-11-14T05:12:30.035Z,17.30
2018-11-14T05:13:32.368Z,17.31
2018-11-14T05:14:34.146Z,17.30
2018-11-14T05:15:36.412Z,17.31
2018-11-14T05:16:38.360Z,17.32
2018-11-14T05:17:40.118Z,17.31
2018-11-14T05:18:41.900Z,17.31
2018-11-14T05:19:43.659Z,17.32
2018-11-14T05:20:45.936Z,17.31
2018-11-14T05:21:47.734Z,17.33
2018-11-14T05:22:49.825Z,17.31
2018-11-14T05:23:51.954Z,17.30
2018-11-14T05:24:53.737Z,17.31
2018-11-14T05:25:55.517Z,17.31
2018-11-14T05:26:57.333Z,17.31
2018-11-14T05:28:00.354Z,17.30
2018-11-14T05:29:02.127Z,17.31
2018-11-14T05:30:03.946Z,17.31
2018-11-14T05:31:05.712Z,17.31
2018-11-14T05:32:07.510Z,17.33
2018-11-14T05:33:09.305Z,17.35
2018-11-14T05:34:11.062Z,17.37
2018-11-14T05:35:13.616Z,17.35
2018-11-14T05:36:15.404Z,17.37
2018-11-14T05:37:17.255Z,17.35
2018-11-14T05:38:20.491Z,17.38
2018-11-14T05:39:22.441Z,17.38
2018-11-14T05:40:24.227Z,17.39
2018-11-14T05:41:26.149Z,17.43
2018-11-14T05:42:27.934Z,17.44
2018-11-14T05:43:29.720Z,17.46
2018-11-14T05:44:31.600Z,17.47
2018-11-14T05:45:34.313Z,17.48
2018-11-14T05:46:36.044Z,17.54
2018-11-14T05:47:38.046Z,17.53
2018-11-14T05:48:39.835Z,17.52
2018-11-14T05:49:41.656Z,17.50
2018-11-14T05:50:43.783Z,17.49
2018-11-14T05:51:45.562Z,17.48
2018-11-14T05:52:47.363Z,17.47
2018-11-14T05:53:50.246Z,17.49
2018-11-14T05:54:52.061Z,17.45
2018-11-14T05:55:53.850Z,17.46
2018-11-14T05:56:55.636Z,17.46
2018-11-14T05:57:57.480Z,17.49
2018-11-14T05:58:59.256Z,17.52
2018-11-14T06:00:01.228Z,17.52
2018-11-14T06:01:03.086Z,17.52
2018-11-14T06:02:04.842Z,17.48
2018-11-14T06:03:06.658Z,17.52
2018-11-14T06:04:09.497Z,17.53
2018-11-14T06:05:11.263Z,17.50
2018-11-14T06:06:13.014Z,17.51
2018-11-14T06:07:15.060Z,17.50
2018-11-14T06:08:17.427Z,17.53
2018-11-14T06:09:19.198Z,17.52
2018-11-14T06:10:21.582Z,17.52
2018-11-14T06:11:23.798Z,17.53
2018-11-14T06:12:26.640Z,17.48
2018-11-14T06:13:28.426Z,17.52
2018-11-14T06:14:30.220Z,17.48
2018-11-14T06:15:31.996Z,17.49
2018-11-14T06:16:33.776Z,17.48
2018-11-14T06:17:35.565Z,17.50
2018-11-14T06:18:37.351Z,17.50
2018-11-14T06:19:39.124Z,17.54
2018-11-14T06:20:40.920Z,17.53
2018-11-14T06:21:42.775Z,17.55
2018-11-14T06:22:45.774Z,17.54
2018-11-14T06:23:47.709Z,17.56
2018-11-14T06:24:49.377Z,17.51
2018-11-14T06:25:52.992Z,17.51
2018-11-14T06:26:54.915Z,17.48
2018-11-14T06:27:57.544Z,17.49
2018-11-14T06:28:59.346Z,17.51
2018-11-14T06:30:01.120Z,17.52
2018-11-14T06:31:02.899Z,17.52
2018-11-14T06:32:04.691Z,17.53
2018-11-14T06:33:07.617Z,17.51
2018-11-14T06:34:09.406Z,17.51
2018-11-14T06:35:11.188Z,17.51
2018-11-14T06:36:12.959Z,17.47
2018-11-14T06:37:14.740Z,17.51
2018-11-14T06:38:17.072Z,17.48
2018-11-14T06:39:19.435Z,17.47
2018-11-14T06:40:21.270Z,17.47
2018-11-14T06:41:23.066Z,17.46
2018-11-14T06:42:24.914Z,17.45
2018-11-14T06:43:27.294Z,17.48
2018-11-14T06:44:29.072Z,17.46
2018-11-14T06:45:32.225Z,17.47
2018-11-14T06:46:34.090Z,17.47
2018-11-14T06:47:35.856Z,17.49
2018-11-14T06:48:37.745Z,17.46
2018-11-14T06:49:39.527Z,17.47
2018-11-14T06:50:41.303Z,17.47
2018-11-14T06:51:43.242Z,17.47
2018-11-14T06:52:45.937Z,17.47
2018-11-14T06:53:47.746Z,17.47
2018-11-14T06:54:49.569Z,17.46
2018-11-14T06:55:51.827Z,17.46
2018-11-14T06:56:53.623Z,17.46
2018-11-14T06:57:57.196Z,17.44
2018-11-14T06:58:59.215Z,17.44
2018-11-14T07:00:00.940Z,17.44
2018-11-14T07:01:02.727Z,17.44
2018-11-14T07:02:04.477Z,17.43
2018-11-14T07:03:07.233Z,17.44
2018-11-14T07:04:08.999Z,17.46
2018-11-14T07:05:12.611Z,17.43
2018-11-14T07:06:15.023Z,17.46
2018-11-14T07:07:16.738Z,17.43
2018-11-14T07:08:20.929Z,17.42
2018-11-14T07:09:22.741Z,17.42
2018-11-14T07:10:25.787Z,17.42
2018-11-14T07:11:27.576Z,17.41
2018-11-14T07:12:30.652Z,17.43
2018-11-14T07:13:32.477Z,17.45
2018-11-14T07:14:34.241Z,17.44
2018-11-14T07:15:36.672Z,17.42
2018-11-14T07:16:38.455Z,17.41
2018-11-14T07:17:40.516Z,17.44
2018-11-14T07:18:42.273Z,17.42
2018-11-14T07:19:44.045Z,17.42
2018-11-14T07:20:46.017Z,17.41
2018-11-14T07:21:48.049Z,17.43
2018-11-14T07:22:49.981Z,17.39
2018-11-14T07:23:51.796Z,17.40
2018-11-14T07:24:53.587Z,17.41
2018-11-14T07:25:55.969Z,17.40
2018-11-14T07:26:57.745Z,17.39
2018-11-14T07:27:59.518Z,17.40
2018-11-14T07:29:01.299Z,17.40
2018-11-14T07:30:03.074Z,17.38
2018-11-14T07:31:04.868Z,17.38
2018-11-14T07:32:06.666Z,17.37
2018-11-14T07:33:09.748Z,17.37
2018-11-14T07:34:12.255Z,17.38
2018-11-14T07:35:15.004Z,17.35
2018-11-14T07:36:16.786Z,17.37
2018-11-14T07:37:19.348Z,17.36
2018-11-14T07:38:21.131Z,17.36
2018-11-14T07:39:22.932Z,17.37
2018-11-14T07:40:25.184Z,17.36
2018-11-14T07:41:28.454Z,17.34
2018-11-14T07:42:30.303Z,17.34
2018-11-14T07:43:32.909Z,17.34
2018-11-14T07:44:34.669Z,17.36
2018-11-14T07:45:36.443Z,17.36
2018-11-14T07:46:38.315Z,17.36
2018-11-14T07:47:40.131Z,17.36
2018-11-14T07:48:42.328Z,17.35
2018-11-14T07:49:44.404Z,17.35
2018-11-14T07:50:46.182Z,17.35
2018-11-14T07:51:48.151Z,17.36
2018-11-14T07:52:50.005Z,17.36
2018-11-14T07:53:52.049Z,17.40
2018-11-14T07:54:54.166Z,17.43
2018-11-14T07:55:56.404Z,17.43
2018-11-14T07:56:58.401Z,17.41
2018-11-14T07:58:00.181Z,17.42
2018-11-14T07:59:02.639Z,17.39
2018-11-14T08:00:04.414Z,17.41
2018-11-14T08:01:07.308Z,17.43
2018-11-14T08:02:09.491Z,17.45
2018-11-14T08:03:11.639Z,17.44
2018-11-14T08:04:13.418Z,17.50
2018-11-14T08:05:16.009Z,17.45
2018-11-14T08:06:17.796Z,17.45
2018-11-14T08:07:19.575Z,17.46
2018-11-14T08:08:21.455Z,17.43
2018-11-14T08:09:23.211Z,17.44
2018-11-14T08:10:24.971Z,17.42
2018-11-14T08:11:27.918Z,17.41
2018-11-14T08:12:29.691Z,17.40
2018-11-14T08:13:32.566Z,17.40
2018-11-14T08:14:34.343Z,17.39
2018-11-14T08:15:36.115Z,17.40
2018-11-14T08:16:37.908Z,17.40
2018-11-14T08:17:39.692Z,17.40
2018-11-14T08:18:41.496Z,17.40
2018-11-14T08:19:44.929Z,17.40
2018-11-14T08:20:46.840Z,17.41
2018-11-14T08:21:48.618Z,17.41
2018-11-14T08:22:50.379Z,17.42
2018-11-14T08:23:52.329Z,17.41
2018-11-14T08:24:54.187Z,17.41
2018-11-14T08:25:56.770Z,17.42
2018-11-14T08:26:58.671Z,17.42
2018-11-14T08:28:00.447Z,17.41
2018-11-14T08:29:02.220Z,17.41
2018-11-14T08:30:04.053Z,17.42
2018-11-14T08:31:05.821Z,17.42
2018-11-14T08:32:07.589Z,17.41
2018-11-14T08:33:09.359Z,17.42
2018-11-14T08:34:11.361Z,17.43
2018-11-14T08:35:13.134Z,17.40
2018-11-14T08:36:14.922Z,17.41
2018-11-14T08:37:16.688Z,17.40
2018-11-14T08:38:19.686Z,17.41
2018-11-14T08:39:21.476Z,17.43
2018-11-14T08:40:23.294Z,17.42
2018-11-14T08:41:25.079Z,17.42
2018-11-14T08:42:27.075Z,17.42
2018-11-14T08:43:28.837Z,17.43
2018-11-14T08:44:30.730Z,17.44
2018-11-14T08:45:32.646Z,17.44
2018-11-14T08:46:34.419Z,17.43
2018-11-14T08:47:36.973Z,17.44
2018-11-14T08:48:38.779Z,17.45
2018-11-14T08:49:41.363Z,17.45
2018-11-14T08:50:43.152Z,17.46
2018-11-14T08:51:44.925Z,17.45
2018-11-14T08:52:47.530Z,17.48
2018-11-14T08:53:49.426Z,17.49
2018-11-14T08:54:51.275Z,17.53
2018-11-14T08:55:53.049Z,17.51
2018-11-14T08:56:54.827Z,17.49
2018-11-14T08:57:56.738Z,17.51
2018-11-14T08:58:58.501Z,17.53
2018-11-14T09:00:00.328Z,17.53
2018-11-14T09:01:02.103Z,17.51
2018-11-14T09:02:03.885Z,17.51
2018-11-14T09:03:06.381Z,17.49
2018-11-14T09:04:08.223Z,17.51
2018-11-14T09:05:10.413Z,17.51
2018-11-14T09:06:12.224Z,17.51
2018-11-14T09:07:14.165Z,17.50
2018-11-14T09:08:16.475Z,17.48
2018-11-14T09:09:18.245Z,17.47
2018-11-14T09:10:22.472Z,17.46
2018-11-14T09:11:24.310Z,17.48
2018-11-14T09:12:26.118Z,17.48
2018-11-14T09:13:27.843Z,17.50
2018-11-14T09:14:29.744Z,17.50
2018-11-14T09:15:31.509Z,17.49
2018-11-14T09:16:33.421Z,17.48
2018-11-14T09:17:35.343Z,17.48
2018-11-14T09:18:37.160Z,17.49
2018-11-14T09:19:38.991Z,17.49
2018-11-14T09:20:40.776Z,17.46
2018-11-14T09:21:44.475Z,17.46
2018-11-14T09:22:46.709Z,17.48
2018-11-14T09:23:48.513Z,17.45
2018-11-14T09:24:50.555Z,17.44
2018-11-14T09:25:52.415Z,17.44
2018-11-14T09:26:54.251Z,17.44
2018-11-14T09:27:56.041Z,17.45
2018-11-14T09:28:58.716Z,17.45
2018-11-14T09:30:00.595Z,17.44
2018-11-14T09:31:02.544Z,17.42
2018-11-14T09:32:04.336Z,17.44
2018-11-14T09:33:06.199Z,17.44
2018-11-14T09:34:07.940Z,17.45
2018-11-14T09:35:11.321Z,17.45
2018-11-14T09:36:13.094Z,17.46
2018-11-14T09:37:15.887Z,17.47
2018-11-14T09:38:17.674Z,17.46
2018-11-14T09:39:19.450Z,17.45
2018-11-14T09:40:22.640Z,17.43
2018-11-14T09:41:24.484Z,17.42
2018-11-14T09:42:26.226Z,17.41
2018-11-14T09:43:28.005Z,17.42
2018-11-14T09:44:29.913Z,17.43
2018-11-14T09:45:31.846Z,17.44
2018-11-14T09:46:34.199Z,17.45
2018-11-14T09:47:36.166Z,17.46
2018-11-14T09:48:39.062Z,17.47
2018-11-14T09:49:41.094Z,17.44
2018-11-14T09:50:43.209Z,17.46
2018-11-14T09:51:45.236Z,17.46
2018-11-14T09:52:48.484Z,17.44
2018-11-14T09:53:50.261Z,17.44
2018-11-14T09:54:52.242Z,17.45
2018-11-14T09:55:54.069Z,17.45
2018-11-14T09:56:55.878Z,17.44
2018-11-14T09:57:57.639Z,17.44
2018-11-14T09:58:59.463Z,17.45
2018-11-14T10:00:01.230Z,17.48
2018-11-14T10:01:03.050Z,17.45
2018-11-14T10:02:04.829Z,17.45
2018-11-14T10:03:06.708Z,17.44
2018-11-14T10:04:08.816Z,17.43
2018-11-14T10:05:11.253Z,17.42
2018-11-14T10:06:13.171Z,17.44
2018-11-14T10:07:14.933Z,17.45
2018-11-14T10:08:16.773Z,17.46
2018-11-14T10:09:18.541Z,17.48
2018-11-14T10:10:21.383Z,17.46
2018-11-14T10:11:23.194Z,17.46
2018-11-14T10:12:24.999Z,17.46
2018-11-14T10:13:26.738Z,17.46
2018-11-14T10:14:28.532Z,17.49
2018-11-14T10:15:30.344Z,17.48
2018-11-14T10:16:32.119Z,17.49
2018-11-14T10:17:33.874Z,17.50
2018-11-14T10:18:35.660Z,17.48
2018-11-14T10:19:37.570Z,17.47
2018-11-14T10:20:39.496Z,17.48
2018-11-14T10:21:41.545Z,17.47
2018-11-14T10:22:43.785Z,17.52
2018-11-14T10:23:45.561Z,17.55
2018-11-14T10:24:47.389Z,17.56
2018-11-14T10:25:49.284Z,17.52
2018-11-14T10:26:51.076Z,17.55
2018-11-14T10:27:52.890Z,17.52
2018-11-14T10:28:54.756Z,17.48
2018-11-14T10:29:56.534Z,17.53
2018-11-14T10:30:58.379Z,17.51
2018-11-14T10:32:00.304Z,17.48
2018-11-14T10:33:02.252Z,17.49
2018-11-14T10:34:04.124Z,17.48
2018-11-14T10:35:05.987Z,17.48
2018-11-14T10:36:07.753Z,17.47
2018-11-14T10:37:09.657Z,17.48
2018-11-14T10:38:11.499Z,17.51
2018-11-14T10:39:13.295Z,17.50
2018-11-14T10:40:16.379Z,17.52
2018-11-14T10:41:18.302Z,17.51
2018-11-14T10:42:20.100Z,17.51
2018-11-14T10:43:21.874Z,17.52
2018-11-14T10:44:23.851Z,17.50
2018-11-14T10:45:26.429Z,17.54
2018-11-14T10:46:28.369Z,17.54
2018-11-14T10:47:30.176Z,17.52
2018-11-14T10:48:32.603Z,17.49
2018-11-14T10:49:34.376Z,17.48
2018-11-14T10:50:36.164Z,17.52
2018-11-14T10:51:38.688Z,17.53
2018-11-14T10:52:40.458Z,17.51
2018-11-14T10:53:42.227Z,17.49
2018-11-14T10:54:45.192Z,17.49
2018-11-14T10:55:47.076Z,17.50
2018-11-14T10:56:48.860Z,17.49
2018-11-14T10:57:50.646Z,17.50
2018-11-14T10:58:52.434Z,17.49
2018-11-14T10:59:54.211Z,17.48
2018-11-14T11:01:01.601Z,17.48
2018-11-14T11:02:09.910Z,17.52
2018-11-14T11:03:16.850Z,17.49
2018-11-14T11:04:24.137Z,17.51
2018-11-14T11:05:31.426Z,17.49
2018-11-14T11:06:40.469Z,17.48
2018-11-14T11:07:47.718Z,17.46
2018-11-14T11:08:54.844Z,17.45
2018-11-14T11:10:02.729Z,17.46
2018-11-14T11:11:09.904Z,17.45
2018-11-14T11:12:17.263Z,17.45
2018-11-14T11:13:24.476Z,17.44
2018-11-14T11:14:36.152Z,17.43
2018-11-14T11:15:43.350Z,17.44
2018-11-14T11:16:50.471Z,17.44
2018-11-14T11:17:57.716Z,17.46
2018-11-14T11:18:59.472Z,17.46
2018-11-14T11:20:01.244Z,17.48
2018-11-14T11:21:03.219Z,17.46
2018-11-14T11:22:05.018Z,17.45
2018-11-14T11:23:07.200Z,17.44
2018-11-14T11:24:08.972Z,17.45
2018-11-14T11:25:10.758Z,17.44
2018-11-14T11:26:12.544Z,17.44
2018-11-14T11:27:14.310Z,17.44
2018-11-14T11:28:16.334Z,17.42
2018-11-14T11:29:18.213Z,17.46
2018-11-14T11:30:20.071Z,17.44
2018-11-14T11:31:21.896Z,17.44
2018-11-14T11:32:23.688Z,17.45
2018-11-14T11:33:25.467Z,17.45
2018-11-14T11:34:27.244Z,17.45
2018-11-14T11:35:29.069Z,17.45
2018-11-14T11:36:30.872Z,17.46
2018-11-14T11:37:32.642Z,17.49
2018-11-14T11:38:34.427Z,17.49
2018-11-14T11:39:36.212Z,17.48
2018-11-14T11:40:38.003Z,17.45
2018-11-14T11:41:40.485Z,17.46
2018-11-14T11:42:42.271Z,17.46
2018-11-14T11:43:44.051Z,17.44
2018-11-14T11:44:45.841Z,17.44
2018-11-14T11:45:47.724Z,17.43
2018-11-14T11:46:49.522Z,17.43
2018-11-14T11:47:51.297Z,17.43
2018-11-14T11:48:53.369Z,17.43
2018-11-14T11:49:55.175Z,17.44
2018-11-14T11:50:57.010Z,17.46
2018-11-14T11:51:58.783Z,17.45
2018-11-14T11:53:00.993Z,17.47
2018-11-14T11:54:02.816Z,17.47
2018-11-14T11:55:04.591Z,17.47
2018-11-14T11:56:06.798Z,17.46
2018-11-14T11:57:08.579Z,17.46
2018-11-14T11:58:10.356Z,17.45
2018-11-14T11:59:12.133Z,17.45
2018-11-14T12:00:14.538Z,17.44
2018-11-14T12:01:16.266Z,17.48
2018-11-14T12:02:18.136Z,17.45
2018-11-14T12:03:19.887Z,17.44
2018-11-14T12:04:21.659Z,17.43
2018-11-14T12:05:23.528Z,17.45
2018-11-14T12:06:25.401Z,17.45
2018-11-14T12:07:27.169Z,17.47
2018-11-14T12:08:28.937Z,17.47
2018-11-14T12:09:30.727Z,17.48
2018-11-14T12:10:32.557Z,17.46
2018-11-14T12:11:34.393Z,17.48
2018-11-14T12:12:36.165Z,17.46
2018-11-14T12:13:37.948Z,17.44
2018-11-14T12:14:39.943Z,17.42
2018-11-14T12:15:41.735Z,17.42
2018-11-14T12:16:43.538Z,17.43
2018-11-14T12:17:45.355Z,17.43
2018-11-14T12:18:47.586Z,17.44
2018-11-14T12:19:49.347Z,17.44
2018-11-14T12:20:51.503Z,17.46
2018-11-14T12:21:53.706Z,17.45
2018-11-14T12:22:55.568Z,17.44
2018-11-14T12:23:57.345Z,17.47
2018-11-14T12:24:59.269Z,17.47
2018-11-14T12:26:01.048Z,17.46
2018-11-14T12:27:02.874Z,17.45
2018-11-14T12:28:04.601Z,17.47
2018-11-14T12:29:06.380Z,17.48
2018-11-14T12:30:08.267Z,17.47
2018-11-14T12:31:10.834Z,17.46
2018-11-14T12:32:12.494Z,17.47
2018-11-14T12:33:14.262Z,17.47
2018-11-14T12:34:16.048Z,17.46
2018-11-14T12:35:17.948Z,17.44
2018-11-14T12:36:19.667Z,17.44
2018-11-14T12:37:21.501Z,17.46
2018-11-14T12:38:23.297Z,17.45
2018-11-14T12:39:25.072Z,17.46
2018-11-14T12:40:26.844Z,17.45
2018-11-14T12:41:28.626Z,17.47
2018-11-14T12:42:30.392Z,17.50
2018-11-14T12:43:32.190Z,17.45
2018-11-14T12:44:33.975Z,17.45
2018-11-14T12:45:35.767Z,17.48
2018-11-14T12:46:37.543Z,17.48
2018-11-14T12:47:39.422Z,17.48
2018-11-14T12:48:41.737Z,17.47
2018-11-14T12:49:43.652Z,17.44
2018-11-14T12:50:45.468Z,17.45
2018-11-14T12:51:47.270Z,17.44
2018-11-14T12:52:49.654Z,17.47
2018-11-14T12:53:51.356Z,17.47
2018-11-14T12:54:53.154Z,17.45
2018-11-14T12:55:55.045Z,17.47
2018-11-14T12:57:03.428Z,17.47
2018-11-14T12:58:05.200Z,17.44
2018-11-14T12:59:06.993Z,17.44
2018-11-14T13:00:08.911Z,17.42
2018-11-14T13:01:10.670Z,17.42
2018-11-14T13:02:13.186Z,17.46
2018-11-14T13:03:15.050Z,17.44
2018-11-14T13:04:17.482Z,17.45
2018-11-14T13:05:19.375Z,17.44
2018-11-14T13:06:21.148Z,17.43
2018-11-14T13:07:23.752Z,17.44
2018-11-14T13:08:25.564Z,17.42
2018-11-14T13:09:29.422Z,17.44
2018-11-14T13:10:31.255Z,17.44
2018-11-14T13:11:33.080Z,17.44
2018-11-14T13:12:34.988Z,17.44
2018-11-14T13:13:42.182Z,17.45
2018-11-14T13:14:44.136Z,17.45
2018-11-14T13:15:45.912Z,17.44
2018-11-14T13:16:47.712Z,17.44
2018-11-14T13:17:49.589Z,17.44
2018-11-14T13:18:51.384Z,17.46
2018-11-14T13:19:53.172Z,17.45